createdAt,value
2023-04-27T00:04:58.596Z,4.30
2023-04-27T00:14:58.487Z,3.30
2023-04-27T00:24:58.492Z,3.60
2023-04-27T00:34:58.495Z,2.50
2023-04-27T00:44:58.500Z,3.30
2023-04-27T00:54:58.501Z,3.50
2023-04-27T01:04:58.509Z,3.20
2023-04-27T01:14:58.498Z,2.80
2023-04-27T01:24:58.512Z,2.60
2023-04-27T01:34:58.534Z,2.40
2023-04-27T01:44:58.535Z,2.30
2023-04-27T01:54:58.553Z,2.20
2023-04-27T02:04:58.540Z,2.00
2023-04-27T02:14:58.543Z,1.70
2023-04-27T02:24:58.548Z,1.70
2023-04-27T02:34:58.539Z,2.10
2023-04-27T02:44:58.567Z,1.70
2023-04-27T02:54:58.569Z,1.45
2023-04-27T03:04:58.563Z,1.50
2023-04-27T03:14:58.577Z,1.50
2023-04-27T03:24:58.593Z,2.00
2023-04-27T03:34:58.594Z,1.10
2023-04-27T03:44:58.578Z,1.65
2023-04-27T03:54:58.590Z,1.30
2023-04-27T04:05:58.601Z,1.65
2023-04-27T04:16:58.598Z,1.60
2023-04-27T04:27:58.607Z,1.05
2023-04-27T04:38:58.611Z,1.10
2023-04-27T04:49:58.613Z,1.20
2023-04-27T05:00:58.611Z,1.10
2023-04-27T05:11:58.628Z,1.40
2023-04-27T05:25:58.631Z,3.40
2023-04-27T05:39:58.635Z,2.50
2023-04-27T05:53:58.653Z,3.30
2023-04-27T06:07:58.651Z,4.50
2023-04-27T06:21:58.663Z,4.10
2023-04-27T06:35:58.654Z,3.25
2023-04-27T06:49:58.673Z,3.20
2023-04-27T07:03:58.778Z,2.30
2023-04-27T07:15:58.699Z,16.30
2023-04-27T07:26:58.673Z,18.00
2023-04-27T07:37:58.672Z,17.30
2023-04-27T07:51:58.653Z,15.40
2023-04-27T08:02:58.794Z,15.00
2023-04-27T08:13:58.660Z,14.20
2023-04-27T08:24:58.674Z,11.80
2023-04-27T08:35:58.666Z,9.90
2023-04-27T08:49:58.683Z,8.60
2023-04-27T09:00:58.695Z,7.40
2023-04-27T09:14:58.693Z,5.60
2023-04-27T09:28:58.692Z,3.90
2023-04-27T09:39:58.691Z,3.50
2023-04-27T09:53:58.705Z,3.20
2023-04-27T10:07:58.700Z,2.30
2023-04-27T10:21:58.706Z,2.30
2023-04-27T10:35:58.720Z,3.00
2023-04-27T10:49:58.714Z,2.35
2023-04-27T11:03:58.783Z,2.30
2023-04-27T11:17:58.749Z,1.50
2023-04-27T11:31:58.806Z,1.80
2023-04-27T11:45:58.746Z,1.40
2023-04-27T11:59:58.776Z,1.20
2023-04-27T12:13:58.756Z,1.40
2023-04-27T12:27:58.757Z,1.10
2023-04-27T12:41:58.769Z,2.60
2023-04-27T12:55:58.772Z,0.80
2023-04-27T13:08:58.772Z,1.60
2023-04-27T13:22:58.771Z,2.40
2023-04-27T13:36:58.792Z,1.00
2023-04-27T13:50:58.797Z,1.10
2023-04-27T14:04:58.860Z,1.60
2023-04-27T14:15:58.817Z,2.20
2023-04-27T14:26:58.819Z,1.80
2023-04-27T14:40:59.390Z,2.10
2023-04-27T14:51:58.809Z,1.90
2023-04-27T15:05:58.849Z,1.90
2023-04-27T15:19:58.847Z,1.80
2023-04-27T15:30:58.877Z,1.40
2023-04-27T15:41:58.844Z,1.10
2023-04-27T15:52:58.850Z,3.10
2023-04-27T16:03:58.943Z,2.10
2023-04-27T16:14:58.849Z,1.00
2023-04-27T16:28:58.858Z,1.20
2023-04-27T16:42:58.937Z,1.40
2023-04-27T16:53:58.856Z,1.40
2023-04-27T17:07:58.868Z,0.90
2023-04-27T17:18:58.870Z,0.80
2023-04-27T17:29:58.924Z,0.80
2023-04-27T17:40:58.895Z,1.05
2023-04-27T17:51:58.917Z,1.30
2023-04-27T18:02:59.018Z,0.70
2023-04-27T18:13:58.920Z,1.10
2023-04-27T18:25:58.924Z,0.60
2023-04-27T18:36:58.911Z,1.80
2023-04-27T18:50:58.927Z,6.10
2023-04-27T19:05:10.733Z,4.80
2023-04-27T19:18:06.779Z,4.70
2023-04-27T19:30:58.940Z,3.10
2023-04-27T19:43:58.945Z,3.10
2023-04-27T19:56:58.959Z,1.50
2023-04-27T20:09:58.942Z,2.50
2023-04-27T20:22:58.949Z,1.70
2023-04-27T20:36:03.848Z,2.80
2023-04-27T20:48:58.975Z,13.40
2023-04-27T21:01:58.976Z,40.50
2023-04-27T21:14:58.974Z,39.80
2023-04-27T21:27:58.965Z,40.90
2023-04-27T21:40:58.975Z,44.40
2023-04-27T21:53:58.976Z,46.80
2023-04-27T22:06:59.000Z,49.50
2023-04-27T22:19:58.988Z,48.70
2023-04-27T22:31:59.011Z,47.30
2023-04-27T22:44:58.990Z,42.25
2023-04-27T22:57:59.009Z,41.30
2023-04-27T23:10:59.028Z,37.10
2023-04-27T23:23:59.042Z,34.00
2023-04-27T23:36:59.024Z,29.80
2023-04-27T23:49:59.036Z,30.10
